createdAt,value
2023-01-31T00:01:35.472Z,99798.13
2023-01-31T00:04:24.428Z,99793.69
2023-01-31T00:07:13.090Z,99786.00
2023-01-31T00:10:01.950Z,99783.82
2023-01-31T00:12:51.007Z,99780.08
2023-01-31T00:15:40.062Z,99777.91
2023-01-31T00:18:29.093Z,99773.55
2023-01-31T00:21:20.229Z,99778.20
2023-01-31T00:24:09.004Z,99772.35
2023-01-31T00:26:57.892Z,99768.27
2023-01-31T00:29:47.918Z,99770.30
2023-01-31T00:32:38.028Z,99772.76
2023-01-31T00:35:26.936Z,99777.23
2023-01-31T00:38:16.063Z,99776.08
2023-01-31T00:41:05.354Z,99777.07
2023-01-31T00:43:55.541Z,99773.65
2023-01-31T00:46:44.303Z,99768.14
2023-01-31T00:49:33.125Z,99763.34
2023-01-31T00:52:22.067Z,99765.23
2023-01-31T00:55:10.792Z,99764.30
2023-01-31T00:57:59.519Z,99764.02
2023-01-31T01:00:48.460Z,99765.14
2023-01-31T01:03:37.467Z,99758.02
2023-01-31T01:06:29.190Z,99758.96
2023-01-31T01:09:18.401Z,99760.61
2023-01-31T01:12:07.096Z,99765.14
2023-01-31T01:14:57.771Z,99764.96
2023-01-31T01:17:47.489Z,99762.29
2023-01-31T01:20:36.668Z,99757.76
2023-01-31T01:23:25.313Z,99756.48
2023-01-31T01:26:15.423Z,99752.42
2023-01-31T01:29:04.763Z,99755.33
2023-01-31T01:31:53.580Z,99751.83
2023-01-31T01:34:42.359Z,99749.70
2023-01-31T01:37:31.387Z,99752.54
2023-01-31T01:40:20.212Z,99754.47
2023-01-31T01:43:11.669Z,99753.48
2023-01-31T01:46:01.398Z,99753.69
2023-01-31T01:48:51.734Z,99754.48
2023-01-31T01:51:40.404Z,99753.77
2023-01-31T01:54:34.451Z,99753.27
2023-01-31T01:57:29.175Z,99753.93
2023-01-31T02:00:23.346Z,99752.20
2023-01-31T02:03:13.953Z,99748.98
2023-01-31T02:06:04.332Z,99746.85
2023-01-31T02:08:53.100Z,99747.97
2023-01-31T02:11:42.071Z,99744.88
2023-01-31T02:14:30.940Z,99742.83
2023-01-31T02:17:19.771Z,99738.39
2023-01-31T02:20:14.225Z,99745.17
2023-01-31T02:23:06.056Z,99749.16
2023-01-31T02:25:57.447Z,99743.86
2023-01-31T02:29:13.995Z,99745.02
2023-01-31T02:32:18.075Z,99737.57
2023-01-31T02:35:09.928Z,99743.16
2023-01-31T02:38:11.162Z,99743.70
2023-01-31T02:41:13.024Z,99746.10
2023-01-31T02:44:50.836Z,99746.59
2023-01-31T02:47:45.709Z,99752.43
2023-01-31T02:50:45.217Z,99756.58
2023-01-31T02:53:46.804Z,99755.47
2023-01-31T02:56:36.791Z,99758.55
2023-01-31T02:59:32.023Z,99760.65
2023-01-31T03:02:20.765Z,99763.33
2023-01-31T03:05:14.485Z,99764.64
2023-01-31T03:08:05.311Z,99761.23
2023-01-31T03:11:05.230Z,99756.42
2023-01-31T03:14:07.599Z,99763.00
2023-01-31T03:17:33.070Z,99765.85
2023-01-31T03:20:36.502Z,99767.23
2023-01-31T03:23:29.536Z,99768.80
2023-01-31T03:26:20.396Z,99767.28
2023-01-31T03:29:11.461Z,99764.65
2023-01-31T03:32:25.234Z,99761.66
2023-01-31T03:35:14.352Z,99762.77
2023-01-31T03:38:11.933Z,99766.60
2023-01-31T03:41:14.204Z,99770.64
2023-01-31T03:44:06.941Z,99773.71
2023-01-31T03:46:59.453Z,99771.58
2023-01-31T03:49:48.361Z,99767.09
2023-01-31T03:52:38.943Z,99768.86
2023-01-31T03:55:32.422Z,99771.56
2023-01-31T03:58:22.888Z,99771.99
2023-01-31T04:01:11.701Z,99767.63
2023-01-31T04:04:12.480Z,99770.97
2023-01-31T04:07:01.521Z,99771.30
2023-01-31T04:09:50.470Z,99775.53
2023-01-31T04:12:39.483Z,99779.52
2023-01-31T04:15:28.106Z,99785.68
2023-01-31T04:18:17.749Z,99788.48
2023-01-31T04:21:06.727Z,99787.33
2023-01-31T04:23:55.548Z,99788.30
2023-01-31T04:26:44.299Z,99785.19
2023-01-31T04:29:33.614Z,99787.90
2023-01-31T04:32:25.283Z,99788.11
2023-01-31T04:35:14.300Z,99787.79
2023-01-31T04:38:03.359Z,99784.79
2023-01-31T04:40:54.623Z,99791.23
2023-01-31T04:43:43.345Z,99794.48
2023-01-31T04:46:32.180Z,99799.36
2023-01-31T04:49:21.703Z,99797.15
2023-01-31T04:52:11.113Z,99802.21
2023-01-31T04:55:00.143Z,99804.80
2023-01-31T04:57:48.801Z,99815.05
2023-01-31T05:00:37.887Z,99812.63
2023-01-31T05:03:26.776Z,99814.17
2023-01-31T05:06:15.468Z,99814.79
2023-01-31T05:09:04.407Z,99816.88
2023-01-31T05:11:53.171Z,99813.80
2023-01-31T05:14:42.364Z,99813.76
2023-01-31T05:17:31.568Z,99813.26
2023-01-31T05:20:21.157Z,99816.88
2023-01-31T05:23:10.746Z,99812.88
2023-01-31T05:25:59.713Z,99818.06
2023-01-31T05:28:48.599Z,99816.78
2023-01-31T05:31:37.396Z,99816.42
2023-01-31T05:34:26.741Z,99817.73
2023-01-31T05:37:15.520Z,99815.52
2023-01-31T05:40:04.570Z,99817.70
2023-01-31T05:42:57.223Z,99822.86
2023-01-31T05:45:47.613Z,99822.98
2023-01-31T05:48:37.010Z,99827.02
2023-01-31T05:51:25.898Z,99831.20
2023-01-31T05:54:14.648Z,99835.36
2023-01-31T05:57:03.294Z,99840.96
2023-01-31T05:59:51.969Z,99837.81
2023-01-31T06:02:41.798Z,99842.30
2023-01-31T06:05:31.381Z,99844.67
2023-01-31T06:08:20.546Z,99845.63
2023-01-31T06:11:11.177Z,99844.55
2023-01-31T06:14:01.797Z,99843.41
2023-01-31T06:16:50.976Z,99851.27
2023-01-31T06:19:39.732Z,99849.83
2023-01-31T06:22:28.663Z,99853.49
2023-01-31T06:25:17.487Z,99852.67
2023-01-31T06:28:07.515Z,99857.65
2023-01-31T06:30:56.811Z,99856.90
2023-01-31T06:33:47.989Z,99858.84
2023-01-31T06:36:37.723Z,99854.23
2023-01-31T06:39:26.908Z,99855.38
2023-01-31T06:42:15.587Z,99857.02
2023-01-31T06:45:04.589Z,99853.33
2023-01-31T06:47:53.284Z,99854.19
2023-01-31T06:50:42.426Z,99857.97
2023-01-31T06:53:31.982Z,99860.77
2023-01-31T06:56:21.099Z,99859.79
2023-01-31T06:59:09.866Z,99861.94
2023-01-31T07:01:58.729Z,99866.09
2023-01-31T07:04:47.443Z,99863.89
2023-01-31T07:07:39.774Z,99864.01
2023-01-31T07:10:28.442Z,99865.54
2023-01-31T07:13:17.197Z,99870.16
2023-01-31T07:16:06.108Z,99872.62
2023-01-31T07:18:55.304Z,99874.30
2023-01-31T07:21:44.509Z,99873.73
2023-01-31T07:24:33.530Z,99872.25
2023-01-31T07:27:22.224Z,99880.06
2023-01-31T07:30:11.660Z,99877.94
2023-01-31T07:33:00.520Z,99879.05
2023-01-31T07:35:49.674Z,99878.96
2023-01-31T07:38:38.410Z,99883.42
2023-01-31T07:41:27.135Z,99883.58
2023-01-31T07:44:15.953Z,99884.57
2023-01-31T07:47:04.614Z,99882.92
2023-01-31T07:49:55.202Z,99881.30
2023-01-31T07:52:44.401Z,99885.37
2023-01-31T07:55:33.121Z,99889.45
2023-01-31T07:58:21.810Z,99892.96
2023-01-31T08:01:50.839Z,99896.39
2023-01-31T08:04:39.805Z,99899.32
2023-01-31T08:07:29.488Z,99901.10
2023-01-31T08:10:18.153Z,99902.44
2023-01-31T08:13:07.345Z,99907.73
2023-01-31T08:15:56.104Z,99908.06
2023-01-31T08:18:45.450Z,99904.86
2023-01-31T08:21:34.227Z,99909.90
2023-01-31T08:24:23.331Z,99907.63
2023-01-31T08:27:11.997Z,99911.00
2023-01-31T08:30:00.759Z,99915.13
2023-01-31T08:32:49.564Z,99917.20
2023-01-31T08:35:38.864Z,99916.27
2023-01-31T08:38:27.549Z,99916.45
2023-01-31T08:41:17.863Z,99919.58
2023-01-31T08:44:06.790Z,99912.31
2023-01-31T08:46:55.413Z,99917.20
2023-01-31T08:49:44.282Z,99915.41
2023-01-31T08:52:35.516Z,99908.77
2023-01-31T08:55:25.243Z,99913.48
2023-01-31T08:58:13.955Z,99917.85
2023-01-31T09:01:06.451Z,99912.83
2023-01-31T09:03:57.311Z,99916.34
2023-01-31T09:06:46.375Z,99919.11
2023-01-31T09:09:35.335Z,99922.28
2023-01-31T09:12:24.140Z,99919.10
2023-01-31T09:15:13.205Z,99918.33
2023-01-31T09:18:02.030Z,99918.32
2023-01-31T09:20:50.634Z,99924.00
2023-01-31T09:23:42.234Z,99920.89
2023-01-31T09:26:32.206Z,99921.90
2023-01-31T09:29:21.043Z,99921.58
2023-01-31T09:32:09.786Z,99917.88
2023-01-31T09:34:59.071Z,99920.86
2023-01-31T09:37:47.987Z,99923.86
2023-01-31T09:40:40.010Z,99919.69
2023-01-31T09:43:33.458Z,99925.15
2023-01-31T09:46:25.379Z,99922.77
2023-01-31T09:49:22.792Z,99927.21
2023-01-31T09:52:11.578Z,99928.64
2023-01-31T09:55:00.247Z,99926.90
2023-01-31T09:57:55.810Z,99923.61
2023-01-31T10:00:55.193Z,99924.81
2023-01-31T12:10:42.452Z,99909.94
2023-01-31T12:13:32.244Z,99908.05
2023-01-31T12:16:22.939Z,99908.95
2023-01-31T12:19:11.938Z,99909.55
2023-01-31T12:22:16.117Z,99911.36
2023-01-31T12:25:12.410Z,99911.07
2023-01-31T12:28:37.989Z,99914.58
2023-01-31T12:31:38.859Z,99911.61
2023-01-31T12:35:01.396Z,99911.07
2023-01-31T12:38:26.665Z,99914.23
2023-01-31T12:41:36.909Z,99918.70
2023-01-31T12:44:40.838Z,99914.83
2023-01-31T12:47:55.517Z,99918.74
2023-01-31T12:50:52.808Z,99919.96
2023-01-31T12:53:50.205Z,99917.55
2023-01-31T12:56:46.893Z,99917.11
2023-01-31T12:59:44.636Z,99924.26
2023-01-31T13:02:39.969Z,99921.67
2023-01-31T13:05:34.673Z,99922.91
2023-01-31T13:08:28.626Z,99923.37
2023-01-31T13:11:30.862Z,99924.77
2023-01-31T13:14:24.522Z,99927.80
2023-01-31T13:17:14.763Z,99932.84
2023-01-31T13:20:31.221Z,99936.42
2023-01-31T13:23:24.595Z,99936.92
2023-01-31T13:26:21.616Z,99939.26
2023-01-31T13:29:14.253Z,99942.03
2023-01-31T13:32:39.143Z,99945.01
2023-01-31T13:35:32.732Z,99947.07
2023-01-31T13:38:21.663Z,99949.87
2023-01-31T13:41:33.366Z,99947.41
2023-01-31T13:44:22.163Z,99951.85
2023-01-31T13:47:18.696Z,99952.98
2023-01-31T13:50:18.763Z,99955.42
2023-01-31T13:53:12.460Z,99953.02
2023-01-31T13:56:01.450Z,99952.66
2023-01-31T13:58:50.489Z,99951.08
2023-01-31T14:01:48.854Z,99951.45
2023-01-31T14:04:40.271Z,99948.39
2023-01-31T14:07:29.678Z,99949.15
2023-01-31T14:10:18.317Z,99953.05
2023-01-31T14:13:27.663Z,99958.81
2023-01-31T14:16:31.979Z,99961.83
2023-01-31T14:19:23.337Z,99962.23
2023-01-31T14:22:13.363Z,99966.19
2023-01-31T14:25:11.085Z,99970.52
2023-01-31T14:28:01.663Z,99971.16
2023-01-31T14:30:50.490Z,99974.27
2023-01-31T14:33:39.293Z,99976.48
2023-01-31T14:36:33.740Z,99970.92
2023-01-31T14:39:50.424Z,99970.35
2023-01-31T14:43:10.585Z,99976.39
2023-01-31T14:46:22.402Z,99979.94
2023-01-31T14:49:32.541Z,99976.08
2023-01-31T14:53:05.835Z,99977.20
2023-01-31T14:56:09.680Z,99984.48
2023-01-31T14:58:58.445Z,99985.13
2023-01-31T15:01:47.183Z,99983.00
2023-01-31T15:04:35.890Z,99982.50
2023-01-31T15:07:25.212Z,99986.13
2023-01-31T15:10:52.360Z,99984.49
2023-01-31T15:13:44.396Z,99995.27
2023-01-31T15:16:33.765Z,99982.10
2023-01-31T15:19:24.491Z,99991.04
2023-01-31T15:22:13.275Z,99989.29
2023-01-31T15:25:07.807Z,99992.18
2023-01-31T15:27:56.853Z,100000.13
2023-01-31T15:30:45.816Z,99997.19
2023-01-31T15:33:51.012Z,99994.23
2023-01-31T15:36:46.024Z,100003.40
2023-01-31T15:39:44.518Z,100006.83
2023-01-31T15:42:34.039Z,99997.59
2023-01-31T15:45:29.949Z,100001.39
2023-01-31T15:48:20.155Z,100009.31
2023-01-31T15:51:14.942Z,100009.21
2023-01-31T15:54:06.225Z,100012.48
2023-01-31T15:56:54.992Z,100011.33
2023-01-31T15:59:44.900Z,100010.11
2023-01-31T18:06:19.112Z,100034.61
2023-01-31T18:09:11.076Z,100034.80
2023-01-31T18:12:00.422Z,100036.30
2023-01-31T18:14:49.227Z,100026.52
2023-01-31T18:17:39.097Z,100026.05
2023-01-31T18:20:28.713Z,100017.40
2023-01-31T18:23:17.331Z,100020.52
2023-01-31T18:26:07.060Z,100021.15
2023-01-31T18:28:57.616Z,100020.35
2023-01-31T18:31:47.758Z,100022.02
2023-01-31T18:34:40.393Z,100022.91
2023-01-31T18:37:29.963Z,100018.63
2023-01-31T18:40:19.042Z,100019.96
2023-01-31T18:43:09.036Z,100026.19
2023-01-31T18:45:57.973Z,100017.33
2023-01-31T18:48:47.403Z,100019.97
2023-01-31T18:51:39.415Z,100029.20
2023-01-31T18:54:28.342Z,100026.44
2023-01-31T18:57:17.119Z,100027.54
2023-01-31T19:00:06.930Z,100019.03
2023-01-31T19:02:55.876Z,100019.29
2023-01-31T19:05:44.824Z,100021.23
2023-01-31T19:08:33.960Z,100019.52
2023-01-31T19:11:24.775Z,100020.08
2023-01-31T19:14:14.009Z,100019.52
2023-01-31T19:17:03.009Z,100016.41
2023-01-31T19:19:52.066Z,100021.77
2023-01-31T19:22:41.124Z,100023.98
2023-01-31T19:25:29.916Z,100017.91
2023-01-31T19:28:22.965Z,100018.27
2023-01-31T19:31:16.445Z,100025.03
2023-01-31T19:34:06.433Z,100022.37
2023-01-31T19:36:55.474Z,100019.98
2023-01-31T19:39:44.601Z,100020.59
2023-01-31T19:42:33.732Z,100023.70
2023-01-31T19:45:23.291Z,100023.80
2023-01-31T19:48:12.319Z,100024.55
2023-01-31T19:51:06.652Z,100024.77
2023-01-31T19:53:59.249Z,100023.89
2023-01-31T19:56:48.051Z,100026.80
2023-01-31T19:59:37.501Z,100024.25
2023-01-31T20:02:26.698Z,100022.31
2023-01-31T20:05:16.136Z,100022.18
2023-01-31T20:08:05.507Z,100019.13
2023-01-31T20:10:55.231Z,100015.63
2023-01-31T20:13:45.244Z,100013.77
2023-01-31T20:16:33.942Z,100012.12
2023-01-31T20:19:23.003Z,100013.09
2023-01-31T20:22:12.408Z,100009.54
2023-01-31T20:25:01.458Z,100010.32
2023-01-31T20:27:50.230Z,100014.00
2023-01-31T20:30:39.253Z,100016.95
2023-01-31T20:33:28.146Z,100017.08
2023-01-31T20:36:17.067Z,100017.64
2023-01-31T20:39:06.577Z,100018.48
2023-01-31T20:41:57.076Z,100014.68
2023-01-31T20:44:46.571Z,100021.63
2023-01-31T20:47:35.642Z,100017.70
2023-01-31T20:50:25.487Z,100018.98
2023-01-31T20:53:18.719Z,100015.78
2023-01-31T20:56:09.997Z,100018.36
2023-01-31T20:58:59.427Z,100019.64
2023-01-31T21:01:48.061Z,100020.04
2023-01-31T21:04:36.928Z,100023.27
2023-01-31T21:07:25.946Z,100026.30
2023-01-31T21:10:15.378Z,100027.85
2023-01-31T21:13:04.513Z,100025.69
2023-01-31T21:15:54.049Z,100028.39
2023-01-31T21:18:46.052Z,100022.56
2023-01-31T21:21:35.206Z,100023.61
2023-01-31T21:24:23.987Z,100026.44
2023-01-31T21:27:31.066Z,100026.32
2023-01-31T21:30:20.089Z,100030.37
2023-01-31T21:33:08.942Z,100030.11
2023-01-31T21:35:58.385Z,100034.47
2023-01-31T21:38:47.469Z,100028.59
2023-01-31T21:41:55.000Z,100028.71
2023-01-31T21:44:44.563Z,100029.93
2023-01-31T21:47:33.513Z,100028.38
2023-01-31T21:50:24.762Z,100025.95
2023-01-31T21:53:15.178Z,100023.27
2023-01-31T21:56:06.802Z,100021.19
2023-01-31T21:58:55.800Z,100018.88
2023-01-31T22:01:44.886Z,100016.86
2023-01-31T22:04:33.732Z,100016.67
2023-01-31T22:07:22.995Z,100017.42
2023-01-31T22:10:11.795Z,100020.96
2023-01-31T22:13:00.919Z,100017.38
2023-01-31T22:15:49.780Z,100021.10
2023-01-31T22:18:38.987Z,100023.21
2023-01-31T22:21:36.014Z,100022.08
2023-01-31T22:24:24.805Z,100017.84
2023-01-31T22:27:13.652Z,100018.27
2023-01-31T22:30:14.983Z,100016.98
2023-01-31T22:33:04.790Z,100017.64
2023-01-31T22:35:54.757Z,100015.23
2023-01-31T22:38:44.164Z,100012.52
2023-01-31T22:41:33.826Z,100010.65
2023-01-31T22:44:23.470Z,100010.25
2023-01-31T22:47:13.617Z,100006.56
2023-01-31T22:50:02.385Z,100005.20
2023-01-31T22:52:51.126Z,100006.48
2023-01-31T22:55:40.718Z,100002.25
2023-01-31T22:58:29.666Z,99999.91
2023-01-31T23:01:21.869Z,99999.45
2023-01-31T23:04:10.612Z,100001.11
2023-01-31T23:06:59.835Z,100000.13
2023-01-31T23:09:48.936Z,100000.65
2023-01-31T23:12:42.577Z,100001.16
2023-01-31T23:15:31.855Z,100000.94
2023-01-31T23:18:30.961Z,99998.82
2023-01-31T23:21:20.158Z,100001.91
2023-01-31T23:24:09.448Z,100000.04
2023-01-31T23:26:58.189Z,99999.73
2023-01-31T23:29:47.065Z,99999.20
2023-01-31T23:32:35.753Z,99996.67
2023-01-31T23:35:26.864Z,99995.60
2023-01-31T23:38:15.815Z,99993.61
2023-01-31T23:41:04.757Z,99994.80
2023-01-31T23:43:53.756Z,99999.31
2023-01-31T23:46:42.741Z,99997.88
2023-01-31T23:49:31.543Z,99998.44
2023-01-31T23:52:20.322Z,99998.52
2023-01-31T23:55:09.281Z,99997.63
2023-01-31T23:57:58.008Z,100000.95
